sensor_id;sensor_type;location;lat;lon;timestamp;temperature;humidity
75685;HTU21D;64298;46.050;38.164;2023-02-13T00:01:50;-0.64;70.85
75685;HTU21D;64298;46.050;38.164;2023-02-13T00:04:17;-0.65;71.27
75685;HTU21D;64298;46.050;38.164;2023-02-13T00:06:43;-0.64;71.25
75685;HTU21D;64298;46.050;38.164;2023-02-13T00:09:09;-0.65;71.00
75685;HTU21D;64298;46.050;38.164;2023-02-13T00:11:36;-0.66;71.28
75685;HTU21D;64298;46.050;38.164;2023-02-13T00:14:02;-0.66;71.55
75685;HTU21D;64298;46.050;38.164;2023-02-13T00:16:28;-0.66;71.21
75685;HTU21D;64298;46.050;38.164;2023-02-13T00:18:53;-0.66;71.02
75685;HTU21D;64298;46.050;38.164;2023-02-13T00:21:19;-0.66;70.81
75685;HTU21D;64298;46.050;38.164;2023-02-13T00:23:45;-0.65;71.48
75685;HTU21D;64298;46.050;38.164;2023-02-13T00:26:13;-0.67;70.95
75685;HTU21D;64298;46.050;38.164;2023-02-13T00:28:43;-0.67;70.73
75685;HTU21D;64298;46.050;38.164;2023-02-13T00:31:15;-0.68;70.95
75685;HTU21D;64298;46.050;38.164;2023-02-13T00:33:41;-0.67;71.44
75685;HTU21D;64298;46.050;38.164;2023-02-13T00:36:10;-0.67;70.30
75685;HTU21D;64298;46.050;38.164;2023-02-13T00:38:38;-0.69;70.51
75685;HTU21D;64298;46.050;38.164;2023-02-13T00:41:04;-0.71;70.44
75685;HTU21D;64298;46.050;38.164;2023-02-13T00:43:31;-0.71;70.42
75685;HTU21D;64298;46.050;38.164;2023-02-13T00:45:57;-0.72;70.53
75685;HTU21D;64298;46.050;38.164;2023-02-13T00:48:24;-0.72;70.76
75685;HTU21D;64298;46.050;38.164;2023-02-13T00:50:50;-0.72;70.50
75685;HTU21D;64298;46.050;38.164;2023-02-13T00:53:37;-0.75;70.59
75685;HTU21D;64298;46.050;38.164;2023-02-13T00:56:04;-0.76;70.87
75685;HTU21D;64298;46.050;38.164;2023-02-13T00:58:31;-0.79;71.42
75685;HTU21D;64298;46.050;38.164;2023-02-13T01:01:15;-0.80;71.72
75685;HTU21D;64298;46.050;38.164;2023-02-13T01:03:41;-0.83;72.04
75685;HTU21D;64298;46.050;38.164;2023-02-13T01:06:07;-0.84;72.44
75685;HTU21D;64298;46.050;38.164;2023-02-13T01:08:34;-0.86;72.51
75685;HTU21D;64298;46.050;38.164;2023-02-13T01:10:59;-0.86;73.19
75685;HTU21D;64298;46.050;38.164;2023-02-13T01:13:25;-0.88;73.07
75685;HTU21D;64298;46.050;38.164;2023-02-13T01:15:52;-0.88;73.03
75685;HTU21D;64298;46.050;38.164;2023-02-13T01:18:19;-0.89;73.22
75685;HTU21D;64298;46.050;38.164;2023-02-13T01:21:02;-0.91;73.24
75685;HTU21D;64298;46.050;38.164;2023-02-13T01:23:36;-0.94;73.08
75685;HTU21D;64298;46.050;38.164;2023-02-13T01:26:05;-0.94;73.49
75685;HTU21D;64298;46.050;38.164;2023-02-13T01:28:31;-0.96;73.78
75685;HTU21D;64298;46.050;38.164;2023-02-13T01:30:57;-0.98;73.54
75685;HTU21D;64298;46.050;38.164;2023-02-13T01:33:25;-0.99;73.01
75685;HTU21D;64298;46.050;38.164;2023-02-13T01:35:51;-1.04;72.90
75685;HTU21D;64298;46.050;38.164;2023-02-13T01:38:17;-1.04;72.62
75685;HTU21D;64298;46.050;38.164;2023-02-13T01:40:48;-1.06;72.13
75685;HTU21D;64298;46.050;38.164;2023-02-13T01:43:14;-1.10;72.11
75685;HTU21D;64298;46.050;38.164;2023-02-13T01:45:41;-1.11;72.21
75685;HTU21D;64298;46.050;38.164;2023-02-13T01:48:26;-1.10;72.26
75685;HTU21D;64298;46.050;38.164;2023-02-13T01:51:26;-1.11;71.82
75685;HTU21D;64298;46.050;38.164;2023-02-13T01:54:06;-1.13;71.84
75685;HTU21D;64298;46.050;38.164;2023-02-13T01:56:40;-1.14;71.46
75685;HTU21D;64298;46.050;38.164;2023-02-13T01:59:14;-1.16;71.26
75685;HTU21D;64298;46.050;38.164;2023-02-13T02:01:41;-1.17;70.75
75685;HTU21D;64298;46.050;38.164;2023-02-13T02:04:10;-1.18;70.91
75685;HTU21D;64298;46.050;38.164;2023-02-13T02:06:42;-1.17;71.46
75685;HTU21D;64298;46.050;38.164;2023-02-13T02:09:13;-1.19;70.74
75685;HTU21D;64298;46.050;38.164;2023-02-13T02:14:13;-1.21;70.70
75685;HTU21D;64298;46.050;38.164;2023-02-13T02:16:41;-1.24;70.58
75685;HTU21D;64298;46.050;38.164;2023-02-13T02:19:18;-1.26;70.03
75685;HTU21D;64298;46.050;38.164;2023-02-13T02:24:25;-1.28;70.87
75685;HTU21D;64298;46.050;38.164;2023-02-13T02:29:56;-1.30;70.72
75685;HTU21D;64298;46.050;38.164;2023-02-13T02:38:24;-1.34;70.71
75685;HTU21D;64298;46.050;38.164;2023-02-13T02:47:24;-1.43;70.48
75685;HTU21D;64298;46.050;38.164;2023-02-13T02:53:09;-1.48;70.88
75685;HTU21D;64298;46.050;38.164;2023-02-13T02:58:27;-1.50;70.48
75685;HTU21D;64298;46.050;38.164;2023-02-13T03:01:17;-1.50;70.88
75685;HTU21D;64298;46.050;38.164;2023-02-13T03:04:04;-1.50;70.74
75685;HTU21D;64298;46.050;38.164;2023-02-13T03:06:55;-1.52;70.94
75685;HTU21D;64298;46.050;38.164;2023-02-13T03:09:29;-1.52;71.03
75685;HTU21D;64298;46.050;38.164;2023-02-13T03:12:16;-1.53;70.51
75685;HTU21D;64298;46.050;38.164;2023-02-13T03:15:02;-1.58;70.38
75685;HTU21D;64298;46.050;38.164;2023-02-13T03:17:28;-1.61;70.68
75685;HTU21D;64298;46.050;38.164;2023-02-13T03:29:13;-1.64;70.23
75685;HTU21D;64298;46.050;38.164;2023-02-13T03:31:58;-1.67;69.71
75685;HTU21D;64298;46.050;38.164;2023-02-13T03:34:30;-1.69;69.85
75685;HTU21D;64298;46.050;38.164;2023-02-13T03:37:26;-1.69;69.80
75685;HTU21D;64298;46.050;38.164;2023-02-13T03:40:36;-1.71;70.18
75685;HTU21D;64298;46.050;38.164;2023-02-13T03:43:12;-1.71;69.97
75685;HTU21D;64298;46.050;38.164;2023-02-13T03:45:42;-1.70;70.23
75685;HTU21D;64298;46.050;38.164;2023-02-13T03:48:22;-1.69;71.13
75685;HTU21D;64298;46.050;38.164;2023-02-13T03:51:09;-1.70;70.50
75685;HTU21D;64298;46.050;38.164;2023-02-13T03:53:39;-1.72;69.96
75685;HTU21D;64298;46.050;38.164;2023-02-13T03:56:08;-1.72;69.58
75685;HTU21D;64298;46.050;38.164;2023-02-13T03:58:55;-1.76;70.00
75685;HTU21D;64298;46.050;38.164;2023-02-13T04:01:45;-1.78;70.76
75685;HTU21D;64298;46.050;38.164;2023-02-13T04:04:21;-1.76;70.50
75685;HTU21D;64298;46.050;38.164;2023-02-13T04:07:02;-1.84;70.19
75685;HTU21D;64298;46.050;38.164;2023-02-13T04:09:30;-1.86;70.68
75685;HTU21D;64298;46.050;38.164;2023-02-13T04:12:01;-1.87;71.10
75685;HTU21D;64298;46.050;38.164;2023-02-13T04:14:57;-1.88;70.81
75685;HTU21D;64298;46.050;38.164;2023-02-13T04:17:31;-1.90;70.94
75685;HTU21D;64298;46.050;38.164;2023-02-13T04:19:58;-1.91;71.13
75685;HTU21D;64298;46.050;38.164;2023-02-13T04:22:24;-1.91;71.31
75685;HTU21D;64298;46.050;38.164;2023-02-13T04:24:50;-1.92;71.19
75685;HTU21D;64298;46.050;38.164;2023-02-13T04:27:17;-1.95;70.86
75685;HTU21D;64298;46.050;38.164;2023-02-13T04:30:01;-1.94;71.29
75685;HTU21D;64298;46.050;38.164;2023-02-13T04:32:27;-1.95;71.52
75685;HTU21D;64298;46.050;38.164;2023-02-13T04:34:53;-1.95;71.39
75685;HTU21D;64298;46.050;38.164;2023-02-13T04:37:19;-1.95;71.49
75685;HTU21D;64298;46.050;38.164;2023-02-13T04:39:45;-1.94;71.66
75685;HTU21D;64298;46.050;38.164;2023-02-13T04:42:11;-1.94;71.67
75685;HTU21D;64298;46.050;38.164;2023-02-13T04:44:37;-1.95;71.78
75685;HTU21D;64298;46.050;38.164;2023-02-13T04:47:21;-1.95;72.01
75685;HTU21D;64298;46.050;38.164;2023-02-13T04:49:47;-1.95;72.03
75685;HTU21D;64298;46.050;38.164;2023-02-13T04:52:13;-1.94;72.00
75685;HTU21D;64298;46.050;38.164;2023-02-13T04:54:58;-1.95;72.44
75685;HTU21D;64298;46.050;38.164;2023-02-13T04:57:24;-1.95;72.61
75685;HTU21D;64298;46.050;38.164;2023-02-13T04:59:50;-1.94;72.62
75685;HTU21D;64298;46.050;38.164;2023-02-13T05:02:16;-1.92;72.49
75685;HTU21D;64298;46.050;38.164;2023-02-13T05:04:42;-1.93;72.42
75685;HTU21D;64298;46.050;38.164;2023-02-13T05:07:08;-1.91;72.47
75685;HTU21D;64298;46.050;38.164;2023-02-13T05:09:34;-1.92;72.70
75685;HTU21D;64298;46.050;38.164;2023-02-13T05:12:00;-1.91;72.70
75685;HTU21D;64298;46.050;38.164;2023-02-13T05:14:26;-1.91;72.81
75685;HTU21D;64298;46.050;38.164;2023-02-13T05:16:55;-1.91;72.69
75685;HTU21D;64298;46.050;38.164;2023-02-13T05:19:21;-1.92;72.15
75685;HTU21D;64298;46.050;38.164;2023-02-13T05:21:47;-1.91;72.18
75685;HTU21D;64298;46.050;38.164;2023-02-13T05:24:31;-1.94;72.68
75685;HTU21D;64298;46.050;38.164;2023-02-13T05:26:57;-1.94;72.77
75685;HTU21D;64298;46.050;38.164;2023-02-13T05:29:23;-1.94;72.77
75685;HTU21D;64298;46.050;38.164;2023-02-13T05:31:51;-1.94;72.74
75685;HTU21D;64298;46.050;38.164;2023-02-13T05:34:21;-1.91;72.29
75685;HTU21D;64298;46.050;38.164;2023-02-13T05:36:47;-1.92;72.18
75685;HTU21D;64298;46.050;38.164;2023-02-13T05:39:13;-1.92;72.12
75685;HTU21D;64298;46.050;38.164;2023-02-13T05:41:41;-1.90;72.16
75685;HTU21D;64298;46.050;38.164;2023-02-13T05:44:07;-1.89;72.15
75685;HTU21D;64298;46.050;38.164;2023-02-13T05:46:35;-1.86;72.00
75685;HTU21D;64298;46.050;38.164;2023-02-13T05:49:01;-1.86;72.05
75685;HTU21D;64298;46.050;38.164;2023-02-13T05:51:27;-1.83;72.35
75685;HTU21D;64298;46.050;38.164;2023-02-13T05:53:53;-1.83;72.54
75685;HTU21D;64298;46.050;38.164;2023-02-13T05:56:19;-1.82;72.19
75685;HTU21D;64298;46.050;38.164;2023-02-13T05:58:45;-1.79;72.16
75685;HTU21D;64298;46.050;38.164;2023-02-13T06:01:11;-1.77;72.11
75685;HTU21D;64298;46.050;38.164;2023-02-13T06:03:37;-1.74;72.03
75685;HTU21D;64298;46.050;38.164;2023-02-13T06:06:05;-1.74;72.07
75685;HTU21D;64298;46.050;38.164;2023-02-13T06:08:31;-1.72;72.19
75685;HTU21D;64298;46.050;38.164;2023-02-13T06:10:56;-1.71;72.45
75685;HTU21D;64298;46.050;38.164;2023-02-13T06:13:23;-1.69;72.19
75685;HTU21D;64298;46.050;38.164;2023-02-13T06:15:49;-1.68;72.19
75685;HTU21D;64298;46.050;38.164;2023-02-13T06:18:15;-1.65;71.96
75685;HTU21D;64298;46.050;38.164;2023-02-13T06:20:41;-1.62;72.27
75685;HTU21D;64298;46.050;38.164;2023-02-13T06:23:07;-1.59;72.55
75685;HTU21D;64298;46.050;38.164;2023-02-13T06:25:34;-1.60;72.41
75685;HTU21D;64298;46.050;38.164;2023-02-13T06:28:02;-1.59;71.94
75685;HTU21D;64298;46.050;38.164;2023-02-13T06:30:28;-1.58;71.90
75685;HTU21D;64298;46.050;38.164;2023-02-13T06:32:54;-1.57;71.80
75685;HTU21D;64298;46.050;38.164;2023-02-13T06:35:20;-1.56;72.05
75685;HTU21D;64298;46.050;38.164;2023-02-13T06:37:46;-1.54;71.96
75685;HTU21D;64298;46.050;38.164;2023-02-13T06:40:14;-1.53;72.06
75685;HTU21D;64298;46.050;38.164;2023-02-13T06:42:44;-1.48;72.09
75685;HTU21D;64298;46.050;38.164;2023-02-13T06:45:11;-1.44;72.25
75685;HTU21D;64298;46.050;38.164;2023-02-13T06:47:44;-1.46;72.51
75685;HTU21D;64298;46.050;38.164;2023-02-13T06:50:12;-1.43;72.55
75685;HTU21D;64298;46.050;38.164;2023-02-13T06:52:38;-1.45;72.45
75685;HTU21D;64298;46.050;38.164;2023-02-13T06:55:05;-1.43;71.95
75685;HTU21D;64298;46.050;38.164;2023-02-13T06:57:31;-1.42;71.79
75685;HTU21D;64298;46.050;38.164;2023-02-13T07:00:00;-1.40;71.84
75685;HTU21D;64298;46.050;38.164;2023-02-13T07:02:31;-1.39;71.94
75685;HTU21D;64298;46.050;38.164;2023-02-13T07:04:57;-1.39;72.03
75685;HTU21D;64298;46.050;38.164;2023-02-13T07:07:23;-1.32;71.84
75685;HTU21D;64298;46.050;38.164;2023-02-13T07:09:49;-1.28;71.71
75685;HTU21D;64298;46.050;38.164;2023-02-13T07:12:15;-1.28;70.83
75685;HTU21D;64298;46.050;38.164;2023-02-13T07:14:41;-1.27;71.22
75685;HTU21D;64298;46.050;38.164;2023-02-13T07:17:07;-1.21;71.37
75685;HTU21D;64298;46.050;38.164;2023-02-13T07:19:35;-1.18;70.97
75685;HTU21D;64298;46.050;38.164;2023-02-13T07:22:01;-1.18;70.74
75685;HTU21D;64298;46.050;38.164;2023-02-13T07:24:27;-1.11;71.28
75685;HTU21D;64298;46.050;38.164;2023-02-13T07:26:53;-1.10;71.10
75685;HTU21D;64298;46.050;38.164;2023-02-13T07:29:19;-1.05;70.93
75685;HTU21D;64298;46.050;38.164;2023-02-13T07:31:45;-1.01;70.74
75685;HTU21D;64298;46.050;38.164;2023-02-13T07:34:11;-1.04;70.33
75685;HTU21D;64298;46.050;38.164;2023-02-13T07:36:36;-1.04;70.39
75685;HTU21D;64298;46.050;38.164;2023-02-13T07:39:02;-1.01;70.40
75685;HTU21D;64298;46.050;38.164;2023-02-13T07:41:28;-1.00;70.32
75685;HTU21D;64298;46.050;38.164;2023-02-13T07:43:54;-0.95;70.22
75685;HTU21D;64298;46.050;38.164;2023-02-13T07:46:20;-0.88;70.54
75685;HTU21D;64298;46.050;38.164;2023-02-13T07:48:46;-0.82;70.10
75685;HTU21D;64298;46.050;38.164;2023-02-13T07:51:12;-0.80;69.87
75685;HTU21D;64298;46.050;38.164;2023-02-13T07:53:38;-0.79;69.24
75685;HTU21D;64298;46.050;38.164;2023-02-13T07:56:09;-0.79;69.87
75685;HTU21D;64298;46.050;38.164;2023-02-13T07:58:37;-0.76;70.55
75685;HTU21D;64298;46.050;38.164;2023-02-13T08:01:09;-0.75;70.32
75685;HTU21D;64298;46.050;38.164;2023-02-13T08:03:36;-0.75;69.72
75685;HTU21D;64298;46.050;38.164;2023-02-13T08:06:03;-0.76;70.28
75685;HTU21D;64298;46.050;38.164;2023-02-13T08:08:48;-0.76;70.16
75685;HTU21D;64298;46.050;38.164;2023-02-13T08:11:35;-0.76;70.07
75685;HTU21D;64298;46.050;38.164;2023-02-13T08:14:24;-0.74;70.58
75685;HTU21D;64298;46.050;38.164;2023-02-13T08:16:51;-0.66;70.58
75685;HTU21D;64298;46.050;38.164;2023-02-13T08:19:18;-0.66;70.37
75685;HTU21D;64298;46.050;38.164;2023-02-13T08:22:04;-0.64;70.39
75685;HTU21D;64298;46.050;38.164;2023-02-13T08:24:31;-0.60;70.26
75685;HTU21D;64298;46.050;38.164;2023-02-13T08:26:57;-0.59;70.13
75685;HTU21D;64298;46.050;38.164;2023-02-13T08:29:42;-0.56;70.03
75685;HTU21D;64298;46.050;38.164;2023-02-13T08:32:08;-0.54;69.26
75685;HTU21D;64298;46.050;38.164;2023-02-13T08:34:33;-0.55;69.55
75685;HTU21D;64298;46.050;38.164;2023-02-13T08:37:01;-0.49;70.15
75685;HTU21D;64298;46.050;38.164;2023-02-13T08:39:27;-0.39;70.49
75685;HTU21D;64298;46.050;38.164;2023-02-13T08:41:53;-0.29;70.90
75685;HTU21D;64298;46.050;38.164;2023-02-13T08:44:18;-0.19;70.58
75685;HTU21D;64298;46.050;38.164;2023-02-13T08:46:44;-0.11;70.31
75685;HTU21D;64298;46.050;38.164;2023-02-13T08:49:10;-0.07;69.77
75685;HTU21D;64298;46.050;38.164;2023-02-13T08:51:36;-0.05;69.36
75685;HTU21D;64298;46.050;38.164;2023-02-13T08:54:02;-0.00;68.94
75685;HTU21D;64298;46.050;38.164;2023-02-13T08:56:28;-0.01;69.07
75685;HTU21D;64298;46.050;38.164;2023-02-13T08:58:54;-0.03;68.38
75685;HTU21D;64298;46.050;38.164;2023-02-13T09:01:20;-0.08;68.46
75685;HTU21D;64298;46.050;38.164;2023-02-13T09:03:48;-0.13;68.90
75685;HTU21D;64298;46.050;38.164;2023-02-13T09:06:14;-0.11;69.12
75685;HTU21D;64298;46.050;38.164;2023-02-13T09:08:40;-0.09;68.81
75685;HTU21D;64298;46.050;38.164;2023-02-13T09:11:06;-0.09;68.37
75685;HTU21D;64298;46.050;38.164;2023-02-13T09:13:33;-0.07;68.78
75685;HTU21D;64298;46.050;38.164;2023-02-13T09:16:00;-0.05;68.94
75685;HTU21D;64298;46.050;38.164;2023-02-13T09:18:27;0.02;68.15
75685;HTU21D;64298;46.050;38.164;2023-02-13T09:21:01;0.05;67.81
75685;HTU21D;64298;46.050;38.164;2023-02-13T09:23:31;0.07;67.80
75685;HTU21D;64298;46.050;38.164;2023-02-13T09:25:59;0.09;68.23
75685;HTU21D;64298;46.050;38.164;2023-02-13T09:28:26;0.17;67.37
75685;HTU21D;64298;46.050;38.164;2023-02-13T09:30:52;0.24;68.54
75685;HTU21D;64298;46.050;38.164;2023-02-13T09:33:18;0.33;68.83
75685;HTU21D;64298;46.050;38.164;2023-02-13T09:35:44;0.40;68.55
75685;HTU21D;64298;46.050;38.164;2023-02-13T09:38:10;0.47;68.40
75685;HTU21D;64298;46.050;38.164;2023-02-13T09:40:47;0.50;68.07
75685;HTU21D;64298;46.050;38.164;2023-02-13T09:43:27;0.51;67.75
75685;HTU21D;64298;46.050;38.164;2023-02-13T09:45:58;0.54;67.14
75685;HTU21D;64298;46.050;38.164;2023-02-13T09:48:32;0.52;67.06
75685;HTU21D;64298;46.050;38.164;2023-02-13T09:50:59;0.49;66.62
75685;HTU21D;64298;46.050;38.164;2023-02-13T09:53:28;0.44;66.88
75685;HTU21D;64298;46.050;38.164;2023-02-13T09:58:43;0.54;67.36
75685;HTU21D;64298;46.050;38.164;2023-02-13T10:01:42;0.55;66.92
75685;HTU21D;64298;46.050;38.164;2023-02-13T10:10:05;0.64;66.90
75685;HTU21D;64298;46.050;38.164;2023-02-13T10:15:21;0.65;66.02
75685;HTU21D;64298;46.050;38.164;2023-02-13T10:18:02;0.65;66.35
75685;HTU21D;64298;46.050;38.164;2023-02-13T10:20:46;0.68;66.55
75685;HTU21D;64298;46.050;38.164;2023-02-13T10:23:41;0.73;67.11
75685;HTU21D;64298;46.050;38.164;2023-02-13T10:26:21;0.81;66.90
75685;HTU21D;64298;46.050;38.164;2023-02-13T10:29:11;0.86;66.75
75685;HTU21D;64298;46.050;38.164;2023-02-13T10:31:59;0.96;66.83
75685;HTU21D;64298;46.050;38.164;2023-02-13T10:34:33;1.03;66.24
75685;HTU21D;64298;46.050;38.164;2023-02-13T10:37:01;1.08;66.67
75685;HTU21D;64298;46.050;38.164;2023-02-13T10:39:29;1.23;66.84
75685;HTU21D;64298;46.050;38.164;2023-02-13T10:52:38;2.15;64.85
75685;HTU21D;64298;46.050;38.164;2023-02-13T11:01:33;2.32;64.52
75685;HTU21D;64298;46.050;38.164;2023-02-13T11:04:20;2.32;64.08
75685;HTU21D;64298;46.050;38.164;2023-02-13T11:07:00;2.31;64.20
75685;HTU21D;64298;46.050;38.164;2023-02-13T11:09:27;2.39;63.98
75685;HTU21D;64298;46.050;38.164;2023-02-13T11:11:54;2.43;63.89
75685;HTU21D;64298;46.050;38.164;2023-02-13T11:14:23;2.39;63.66
75685;HTU21D;64298;46.050;38.164;2023-02-13T11:19:46;2.51;63.85
75685;HTU21D;64298;46.050;38.164;2023-02-13T11:22:34;2.57;63.70
75685;HTU21D;64298;46.050;38.164;2023-02-13T11:25:17;2.67;63.65
75685;HTU21D;64298;46.050;38.164;2023-02-13T11:27:45;2.71;63.34
